Portada
METAR-TAF:

METAR-TAF

Aeroports :

Bom Jesus da Lapa, Bahia, Brasil

latitud: 13-16S, longitud: 043-25W, altitud: 440 m

Observació

L'informe es va fer fa 37 minuts, a les 20:00 UTC
Vent 6 kt del Sud/Sud-Est, variant entre Est/Sud-Est i Sud/Sud-Oest
Temperatura 37°C
Humitat 16%
Pressió 1008 hPa
Visibilitat 10 km o més
sense núvols per sota de 1500 mi sense presència de cumulonimbus.

METAR: SBLP 132000Z AUTO 16006KT 120V200 CAVOK 37/07 Q1008

Hora: 18:37 (20:37 UTC)


TAF: manca

Observacions i pronòstics meteorològics de més de 4000 aeroports (METAR i TAF).

Les estacions disponibles són els punts grocs i vermells al mapa.

Posi el ratolí al punt desitjat per veure el nom de l'estació.

Feu clic per veure les observacions i els pronòstics meteorològics.

Per canviar el mapa: feu clic els botons verds amb una creu de color negre per apropar; al botó verd amb un guió per allunyar la imatge; o en les fletxes verdes per a mapes adjacents.


METAR-TAF: